Flight Track Log - Related Links

Times and Time Zones

All times are in EDT time to prevent confusion due to time zone crossing. See the SWA2863 flight status page for this flight to view local times or setup timezone preferences in your user account.

Time Position Orientation Groundspeed Altitude Reporting Facility
EDT Latitude Longitude Course Direction KTS MPH feet Rate Location/Type
Thu 07:00:26 PM 33.9447 -118.4619 266° West 185 213 1,700  Level Los Angeles Center
Thu 07:01:28 PM 33.9400 -118.5450 266° West 259 298 3,800 3,000 Climbing Los Angeles Center
Thu 07:02:30 PM 33.9447 -118.6344 274° West 274 315 7,900 2,516 Climbing Los Angeles Center
Thu 07:03:32 PM 34.0089 -118.6967 321° Northwest 283 326 9,000 624 Climbing Los Angeles Center
Thu 07:04:35 PM 34.0842 -118.6658 19° North 286 329 9,200 1,776 Climbing Los Angeles Center
Thu 07:05:37 PM 34.1656 -118.6700 358° North 286 329 12,700 3,097 Climbing Los Angeles Center
Thu 07:06:39 PM 34.2536 -118.6833 353° North 309 356 15,600 2,661 Climbing Los Angeles Center
Thu 07:07:41 PM 34.3542 -118.6994 352° North 348 400 18,200 2,516 Climbing Los Angeles Center
Thu 07:08:43 PM 34.4653 -118.7156 353° North 398 458 20,800 2,496 Climbing Los Angeles Center
Thu 07:09:46 PM 34.6014 -118.7583 345° North 425 489 23,400 2,400 Climbing Los Angeles Center
Thu 07:10:48 PM 34.7122 -118.8167 337° Northwest 432 497 25,800 1,984 Climbing Los Angeles Center
Thu 07:11:50 PM 34.8275 -118.8847 334° Northwest 467 537 27,500 1,403 Climbing Los Angeles Center
Thu 07:12:52 PM 34.9264 -118.9839 321° Northwest 480 552 28,700 1,887 Climbing Los Angeles Center
Thu 07:13:54 PM 35.0306 -119.0819 322° Northwest 474 545 31,400 2,129 Climbing Los Angeles Center
Thu 07:14:56 PM 35.1578 -119.2047 322° Northwest 482 555 33,100 1,790 Climbing Los Angeles Center
Thu 07:15:58 PM 35.2642 -119.3094 321° Northwest 490 564 35,100 1,403 Climbing Los Angeles Center
Thu 07:17:00 PM 35.3681 -119.4139 321° Northwest 487 560 36,000 432 Climbing Los Angeles Center
Thu 07:18:03 PM 35.4736 -119.5167 322° Northwest 487 560 36,000  Level Los Angeles Center
Thu 07:19:05 PM 35.5786 -119.6222 321° Northwest 490 564 36,000  Level Los Angeles Center
Thu 07:20:07 PM 35.7044 -119.7478 321° Northwest 490 564 36,000  Level Los Angeles Center
Thu 07:21:09 PM 35.8086 -119.8525 321° Northwest 489 563 36,000  Level Los Angeles Center
Thu 07:22:16 PM 35.9106 -119.9553 321° Northwest 487 560 36,000  Level Oakland Center
Thu 07:23:18 PM 36.0339 -120.0800 321° Northwest 483 556 36,000  Level Oakland Center
Thu 07:24:19 PM 36.1369 -120.1839 321° Northwest 481 554 36,000 -732 Level Oakland Center
Thu 07:25:21 PM 36.2386 -120.2872 321° Northwest 476 548 34,500 -2,244 Descending Oakland Center
Thu 07:26:22 PM 36.3414 -120.3917 321° Northwest 479 551 31,400 -2,780 Descending Oakland Center
Thu 07:27:24 PM 36.4425 -120.4967 320° Northwest 478 550 28,800 -2,000 Descending Oakland Center
Thu 07:28:25 PM 36.5397 -120.5947 321° Northwest 456 525 27,300 -1,415 Descending Oakland Center
Thu 07:29:27 PM 36.6319 -120.6928 320° Northwest 440 506 25,900 -1,659 Descending Oakland Center
Thu 07:30:28 PM 36.7403 -120.8044 320° Northwest 422 486 23,900 -1,415 Descending Oakland Center
Thu 07:31:30 PM 36.8206 -120.8942 318° Northwest 405 466 23,000 -1,512 Descending Oakland Center
Thu 07:32:31 PM 36.8981 -120.9853 317° Northwest 385 443 20,800 -2,098 Descending Oakland Center
Thu 07:33:33 PM 36.9753 -121.0736 318° Northwest 377 434 18,700 -2,098 Descending Oakland Center
Thu 07:34:34 PM 37.0542 -121.1656 317° Northwest 358 412 16,500 -1,951 Descending Oakland Center
Thu 07:35:36 PM 37.1186 -121.2411 317° Northwest 350 403 14,700 -1,854 Descending Oakland Center
Thu 07:36:37 PM 37.1869 -121.3194 318° Northwest 335 386 12,700 -2,000 Descending Oakland Center
Thu 07:37:39 PM 37.2769 -121.3881 329° Northwest 331 381 10,600 -1,317 Descending Oakland Center
Thu 07:38:40 PM 37.3475 -121.4369 331° Northwest 308 354 10,000 -756 Descending Oakland Center
Thu 07:39:38 PM 37.4000 -121.5000 316° Northwest 292 336 9,100 -966 Descending Northern Cal TRACON
Thu 07:40:38 PM 37.4667 -121.5667 322° Northwest 291 335 8,100 -1,000 Descending Northern Cal TRACON
Thu 07:41:38 PM 37.5167 -121.6500 307° West 289 333 7,100 -1,000 Descending Northern Cal TRACON
Thu 07:42:38 PM 37.5500 -121.7333 297° West 280 322 6,100 -595 Descending Northern Cal TRACON
Thu 07:43:39 PM 37.5667 -121.8333 282° West 275 316 5,900 -524 Descending Northern Cal TRACON
Thu 07:44:44 PM 37.5833 -121.9333 282° West 273 314 5,000 -672 Descending Northern Cal TRACON
Thu 07:45:44 PM 37.6000 -122.0167 284° West 238 274 4,500 -730 Descending Northern Cal TRACON
Thu 07:46:39 PM 37.6167 -122.0833 288° West 196 226 3,600 -1,148 Descending Northern Cal TRACON
Thu 07:47:39 PM 37.6333 -122.1167 302° West 155 178 2,300 -1,300 Descending Northern Cal TRACON
Thu 07:48:39 PM 37.6667 -122.1667 310° West 141 162 1,000 -952 Descending Northern Cal TRACON
Thu 07:49:45 PM 37.7000 -122.2000 322° Northwest 127 146 300 -636 Descending Northern Cal TRACON
Thu 07:51:00 PM 37.7167 -122.2167 270° West  Level FlightAware Approximate
Thu 07:58:00 PM 37.7213 -122.2207 270° West  Level Estimated
Thu 07:59:00 PM 37.7167 -122.2167 270° West  Level FlightAware Approximate

Login

Don't have an account? Register now (free) for customized features, flight alerts, and more!